sensor_id;sensor_type;location;lat;lon;timestamp;P1;durP1;ratioP1;P2;durP2;ratioP2
32786;SDS011;19139;49.372;8.580;2023-04-24T00:02:03;1.80;;;1.40;;
32786;SDS011;19139;49.372;8.580;2023-04-24T00:04:30;2.17;;;1.33;;
32786;SDS011;19139;49.372;8.580;2023-04-24T00:06:58;2.33;;;1.30;;
32786;SDS011;19139;49.372;8.580;2023-04-24T00:09:26;1.43;;;1.10;;
32786;SDS011;19139;49.372;8.580;2023-04-24T00:11:57;2.10;;;1.50;;
32786;SDS011;19139;49.372;8.580;2023-04-24T00:14:24;1.77;;;1.33;;
32786;SDS011;19139;49.372;8.580;2023-04-24T00:16:50;1.87;;;1.40;;
32786;SDS011;19139;49.372;8.580;2023-04-24T00:19:17;3.20;;;1.10;;
32786;SDS011;19139;49.372;8.580;2023-04-24T00:22:01;1.40;;;1.30;;
32786;SDS011;19139;49.372;8.580;2023-04-24T00:24:28;2.37;;;1.43;;
32786;SDS011;19139;49.372;8.580;2023-04-24T00:26:55;1.30;;;1.20;;
32786;SDS011;19139;49.372;8.580;2023-04-24T00:29:22;1.37;;;1.17;;
32786;SDS011;19139;49.372;8.580;2023-04-24T00:31:48;1.43;;;1.20;;
32786;SDS011;19139;49.372;8.580;2023-04-24T00:34:15;2.03;;;1.20;;
32786;SDS011;19139;49.372;8.580;2023-04-24T00:36:42;1.20;;;0.97;;
32786;SDS011;19139;49.372;8.580;2023-04-24T00:39:08;1.83;;;1.30;;
32786;SDS011;19139;49.372;8.580;2023-04-24T00:41:35;1.43;;;1.33;;
32786;SDS011;19139;49.372;8.580;2023-04-24T00:44:02;1.43;;;1.33;;
32786;SDS011;19139;49.372;8.580;2023-04-24T00:46:29;1.20;;;1.10;;
32786;SDS011;19139;49.372;8.580;2023-04-24T00:48:57;1.80;;;1.10;;
32786;SDS011;19139;49.372;8.580;2023-04-24T00:51:25;2.00;;;1.30;;
32786;SDS011;19139;49.372;8.580;2023-04-24T00:53:53;2.33;;;1.60;;
32786;SDS011;19139;49.372;8.580;2023-04-24T00:56:24;1.43;;;1.00;;
32786;SDS011;19139;49.372;8.580;2023-04-24T00:58:51;1.87;;;1.43;;
32786;SDS011;19139;49.372;8.580;2023-04-24T01:01:19;2.03;;;1.27;;
32786;SDS011;19139;49.372;8.580;2023-04-24T01:03:47;1.80;;;1.17;;
32786;SDS011;19139;49.372;8.580;2023-04-24T01:06:17;1.60;;;1.23;;
32786;SDS011;19139;49.372;8.580;2023-04-24T01:08:45;1.97;;;1.30;;
32786;SDS011;19139;49.372;8.580;2023-04-24T01:11:13;1.40;;;1.20;;
32786;SDS011;19139;49.372;8.580;2023-04-24T01:13:40;2.10;;;1.30;;
32786;SDS011;19139;49.372;8.580;2023-04-24T01:16:07;1.63;;;1.20;;
32786;SDS011;19139;49.372;8.580;2023-04-24T01:18:34;2.47;;;1.20;;
32786;SDS011;19139;49.372;8.580;2023-04-24T01:21:01;1.57;;;1.20;;
32786;SDS011;19139;49.372;8.580;2023-04-24T01:23:30;1.70;;;1.47;;
32786;SDS011;19139;49.372;8.580;2023-04-24T01:25:57;1.63;;;1.30;;
32786;SDS011;19139;49.372;8.580;2023-04-24T01:28:24;1.60;;;1.00;;
32786;SDS011;19139;49.372;8.580;2023-04-24T01:30:50;1.57;;;1.17;;
32786;SDS011;19139;49.372;8.580;2023-04-24T01:33:18;1.63;;;1.30;;
32786;SDS011;19139;49.372;8.580;2023-04-24T01:35:48;2.67;;;1.60;;
32786;SDS011;19139;49.372;8.580;2023-04-24T01:38:15;1.37;;;1.00;;
32786;SDS011;19139;49.372;8.580;2023-04-24T01:40:41;1.23;;;1.13;;
32786;SDS011;19139;49.372;8.580;2023-04-24T01:43:08;1.77;;;1.20;;
32786;SDS011;19139;49.372;8.580;2023-04-24T01:45:35;1.67;;;1.10;;
32786;SDS011;19139;49.372;8.580;2023-04-24T01:48:01;1.00;;;0.90;;
32786;SDS011;19139;49.372;8.580;2023-04-24T01:50:29;1.50;;;1.10;;
32786;SDS011;19139;49.372;8.580;2023-04-24T01:53:01;1.90;;;1.27;;
32786;SDS011;19139;49.372;8.580;2023-04-24T01:55:27;1.57;;;1.20;;
32786;SDS011;19139;49.372;8.580;2023-04-24T01:57:55;1.77;;;1.20;;
32786;SDS011;19139;49.372;8.580;2023-04-24T02:00:22;1.27;;;1.00;;
32786;SDS011;19139;49.372;8.580;2023-04-24T02:02:48;1.43;;;1.10;;
32786;SDS011;19139;49.372;8.580;2023-04-24T02:05:16;1.77;;;1.30;;
32786;SDS011;19139;49.372;8.580;2023-04-24T02:07:42;2.27;;;1.53;;
32786;SDS011;19139;49.372;8.580;2023-04-24T02:10:09;1.20;;;0.97;;
32786;SDS011;19139;49.372;8.580;2023-04-24T02:12:36;1.50;;;1.27;;
32786;SDS011;19139;49.372;8.580;2023-04-24T02:15:03;2.23;;;1.27;;
32786;SDS011;19139;49.372;8.580;2023-04-24T02:17:30;1.63;;;1.20;;
32786;SDS011;19139;49.372;8.580;2023-04-24T02:19:57;2.63;;;1.10;;
32786;SDS011;19139;49.372;8.580;2023-04-24T02:22:24;1.17;;;0.93;;
32786;SDS011;19139;49.372;8.580;2023-04-24T02:24:50;2.37;;;1.40;;
32786;SDS011;19139;49.372;8.580;2023-04-24T02:27:17;0.93;;;0.80;;
32786;SDS011;19139;49.372;8.580;2023-04-24T02:29:43;2.30;;;1.17;;
32786;SDS011;19139;49.372;8.580;2023-04-24T02:32:11;1.50;;;1.20;;
32786;SDS011;19139;49.372;8.580;2023-04-24T02:34:38;1.30;;;1.13;;
32786;SDS011;19139;49.372;8.580;2023-04-24T02:37:05;1.63;;;1.53;;
32786;SDS011;19139;49.372;8.580;2023-04-24T02:39:36;1.20;;;1.10;;
32786;SDS011;19139;49.372;8.580;2023-04-24T02:42:08;1.07;;;0.80;;
32786;SDS011;19139;49.372;8.580;2023-04-24T02:44:39;1.83;;;1.33;;
32786;SDS011;19139;49.372;8.580;2023-04-24T02:47:06;1.43;;;1.10;;
32786;SDS011;19139;49.372;8.580;2023-04-24T02:49:34;1.17;;;1.03;;
32786;SDS011;19139;49.372;8.580;2023-04-24T02:52:01;2.10;;;1.00;;
32786;SDS011;19139;49.372;8.580;2023-04-24T02:54:28;1.40;;;1.20;;
32786;SDS011;19139;49.372;8.580;2023-04-24T02:56:54;1.80;;;1.20;;
32786;SDS011;19139;49.372;8.580;2023-04-24T02:59:22;1.37;;;1.23;;
32786;SDS011;19139;49.372;8.580;2023-04-24T03:01:49;1.10;;;0.90;;
32786;SDS011;19139;49.372;8.580;2023-04-24T03:04:16;1.93;;;1.10;;
32786;SDS011;19139;49.372;8.580;2023-04-24T03:06:47;1.20;;;1.07;;
32786;SDS011;19139;49.372;8.580;2023-04-24T03:09:13;1.57;;;0.90;;
32786;SDS011;19139;49.372;8.580;2023-04-24T03:11:40;1.40;;;0.80;;
32786;SDS011;19139;49.372;8.580;2023-04-24T03:14:06;1.50;;;1.20;;
32786;SDS011;19139;49.372;8.580;2023-04-24T03:16:33;1.20;;;0.80;;
32786;SDS011;19139;49.372;8.580;2023-04-24T03:19:00;1.43;;;1.00;;
32786;SDS011;19139;49.372;8.580;2023-04-24T03:21:27;1.07;;;1.00;;
32786;SDS011;19139;49.372;8.580;2023-04-24T03:23:53;1.47;;;1.37;;
32786;SDS011;19139;49.372;8.580;2023-04-24T03:26:20;1.43;;;1.00;;
32786;SDS011;19139;49.372;8.580;2023-04-24T03:28:47;1.43;;;1.10;;
32786;SDS011;19139;49.372;8.580;2023-04-24T03:31:14;1.43;;;1.10;;
32786;SDS011;19139;49.372;8.580;2023-04-24T03:33:41;1.10;;;1.00;;
32786;SDS011;19139;49.372;8.580;2023-04-24T03:36:08;1.23;;;1.03;;
32786;SDS011;19139;49.372;8.580;2023-04-24T03:38:39;1.50;;;1.10;;
32786;SDS011;19139;49.372;8.580;2023-04-24T03:41:06;1.57;;;1.20;;
32786;SDS011;19139;49.372;8.580;2023-04-24T03:43:37;1.10;;;0.90;;
32786;SDS011;19139;49.372;8.580;2023-04-24T03:46:10;1.03;;;0.90;;
32786;SDS011;19139;49.372;8.580;2023-04-24T03:48:36;1.13;;;0.70;;
32786;SDS011;19139;49.372;8.580;2023-04-24T03:51:08;1.47;;;0.90;;
32786;SDS011;19139;49.372;8.580;2023-04-24T03:53:34;1.00;;;0.87;;
32786;SDS011;19139;49.372;8.580;2023-04-24T03:56:01;1.50;;;1.00;;
32786;SDS011;19139;49.372;8.580;2023-04-24T03:58:27;0.87;;;0.70;;
32786;SDS011;19139;49.372;8.580;2023-04-24T04:00:54;1.17;;;0.80;;
32786;SDS011;19139;49.372;8.580;2023-04-24T04:03:23;1.40;;;0.80;;
32786;SDS011;19139;49.372;8.580;2023-04-24T04:05:50;1.53;;;1.00;;
32786;SDS011;19139;49.372;8.580;2023-04-24T04:08:16;1.23;;;1.00;;
32786;SDS011;19139;49.372;8.580;2023-04-24T04:10:43;1.30;;;1.07;;
32786;SDS011;19139;49.372;8.580;2023-04-24T04:13:10;1.47;;;1.00;;
32786;SDS011;19139;49.372;8.580;2023-04-24T04:15:36;1.87;;;1.23;;
32786;SDS011;19139;49.372;8.580;2023-04-24T04:18:03;1.30;;;1.00;;
32786;SDS011;19139;49.372;8.580;2023-04-24T04:20:29;1.57;;;1.30;;
32786;SDS011;19139;49.372;8.580;2023-04-24T04:22:56;1.70;;;1.10;;
32786;SDS011;19139;49.372;8.580;2023-04-24T04:25:23;1.20;;;1.07;;
32786;SDS011;19139;49.372;8.580;2023-04-24T04:27:49;1.40;;;0.90;;
32786;SDS011;19139;49.372;8.580;2023-04-24T04:30:17;1.97;;;1.23;;
32786;SDS011;19139;49.372;8.580;2023-04-24T04:32:44;1.47;;;1.10;;
32786;SDS011;19139;49.372;8.580;2023-04-24T04:35:10;0.83;;;0.77;;
32786;SDS011;19139;49.372;8.580;2023-04-24T04:37:37;1.33;;;1.00;;
32786;SDS011;19139;49.372;8.580;2023-04-24T04:40:04;1.17;;;1.00;;
32786;SDS011;19139;49.372;8.580;2023-04-24T04:42:37;1.17;;;1.03;;
32786;SDS011;19139;49.372;8.580;2023-04-24T04:45:07;1.77;;;1.07;;
32786;SDS011;19139;49.372;8.580;2023-04-24T04:47:37;1.37;;;0.77;;
32786;SDS011;19139;49.372;8.580;2023-04-24T04:50:05;1.37;;;0.87;;
32786;SDS011;19139;49.372;8.580;2023-04-24T04:52:32;1.23;;;0.83;;
32786;SDS011;19139;49.372;8.580;2023-04-24T04:54:59;1.10;;;1.00;;
32786;SDS011;19139;49.372;8.580;2023-04-24T04:57:26;2.00;;;0.90;;
32786;SDS011;19139;49.372;8.580;2023-04-24T04:59:52;1.67;;;1.10;;
32786;SDS011;19139;49.372;8.580;2023-04-24T05:02:19;1.50;;;0.80;;
32786;SDS011;19139;49.372;8.580;2023-04-24T05:04:51;1.37;;;0.90;;
32786;SDS011;19139;49.372;8.580;2023-04-24T05:07:18;1.50;;;1.00;;
32786;SDS011;19139;49.372;8.580;2023-04-24T05:09:45;1.53;;;1.00;;
32786;SDS011;19139;49.372;8.580;2023-04-24T05:12:11;1.63;;;0.90;;
32786;SDS011;19139;49.372;8.580;2023-04-24T05:14:38;1.03;;;0.87;;
32786;SDS011;19139;49.372;8.580;2023-04-24T05:17:04;1.53;;;1.17;;
32786;SDS011;19139;49.372;8.580;2023-04-24T05:19:36;1.80;;;0.83;;
32786;SDS011;19139;49.372;8.580;2023-04-24T05:22:04;1.30;;;0.90;;
32786;SDS011;19139;49.372;8.580;2023-04-24T05:24:37;1.37;;;0.97;;
32786;SDS011;19139;49.372;8.580;2023-04-24T05:27:04;1.17;;;0.87;;
32786;SDS011;19139;49.372;8.580;2023-04-24T05:29:36;0.80;;;0.70;;
32786;SDS011;19139;49.372;8.580;2023-04-24T05:32:02;1.27;;;0.90;;
32786;SDS011;19139;49.372;8.580;2023-04-24T05:34:29;1.30;;;0.80;;
32786;SDS011;19139;49.372;8.580;2023-04-24T05:36:56;1.40;;;0.77;;
32786;SDS011;19139;49.372;8.580;2023-04-24T05:39:28;1.23;;;1.00;;
32786;SDS011;19139;49.372;8.580;2023-04-24T05:41:59;1.37;;;1.20;;
32786;SDS011;19139;49.372;8.580;2023-04-24T05:44:27;1.17;;;0.70;;
32786;SDS011;19139;49.372;8.580;2023-04-24T05:46:54;1.77;;;1.13;;
32786;SDS011;19139;49.372;8.580;2023-04-24T05:49:26;1.47;;;0.93;;
32786;SDS011;19139;49.372;8.580;2023-04-24T05:51:53;1.10;;;0.80;;
32786;SDS011;19139;49.372;8.580;2023-04-24T05:54:24;2.03;;;1.40;;
32786;SDS011;19139;49.372;8.580;2023-04-24T05:56:51;2.10;;;1.00;;
32786;SDS011;19139;49.372;8.580;2023-04-24T05:59:23;1.10;;;0.80;;
32786;SDS011;19139;49.372;8.580;2023-04-24T06:01:54;1.90;;;0.97;;
32786;SDS011;19139;49.372;8.580;2023-04-24T06:04:26;1.37;;;0.90;;
32786;SDS011;19139;49.372;8.580;2023-04-24T06:06:57;0.90;;;0.53;;
32786;SDS011;19139;49.372;8.580;2023-04-24T06:09:24;1.33;;;0.93;;
32786;SDS011;19139;49.372;8.580;2023-04-24T06:11:51;1.13;;;0.87;;
32786;SDS011;19139;49.372;8.580;2023-04-24T06:14:19;1.37;;;0.77;;
32786;SDS011;19139;49.372;8.580;2023-04-24T06:16:46;1.17;;;1.07;;
32786;SDS011;19139;49.372;8.580;2023-04-24T06:19:15;1.30;;;1.00;;
32786;SDS011;19139;49.372;8.580;2023-04-24T06:21:47;1.10;;;0.80;;
32786;SDS011;19139;49.372;8.580;2023-04-24T06:24:18;1.03;;;0.90;;
32786;SDS011;19139;49.372;8.580;2023-04-24T06:26:50;1.17;;;0.90;;
32786;SDS011;19139;49.372;8.580;2023-04-24T06:29:16;1.00;;;0.87;;
32786;SDS011;19139;49.372;8.580;2023-04-24T06:31:43;1.33;;;1.07;;
32786;SDS011;19139;49.372;8.580;2023-04-24T06:34:10;1.00;;;0.87;;
32786;SDS011;19139;49.372;8.580;2023-04-24T06:36:36;1.20;;;0.90;;
32786;SDS011;19139;49.372;8.580;2023-04-24T06:39:08;1.00;;;0.73;;
32786;SDS011;19139;49.372;8.580;2023-04-24T06:41:40;2.17;;;1.10;;
32786;SDS011;19139;49.372;8.580;2023-04-24T06:44:11;2.83;;;0.97;;
32786;SDS011;19139;49.372;8.580;2023-04-24T06:46:40;1.73;;;1.00;;
32786;SDS011;19139;49.372;8.580;2023-04-24T06:49:12;1.00;;;0.80;;
32786;SDS011;19139;49.372;8.580;2023-04-24T06:51:46;2.23;;;0.90;;
32786;SDS011;19139;49.372;8.580;2023-04-24T06:54:18;1.27;;;0.87;;
32786;SDS011;19139;49.372;8.580;2023-04-24T06:56:49;1.77;;;0.90;;
32786;SDS011;19139;49.372;8.580;2023-04-24T06:59:23;1.50;;;0.60;;
32786;SDS011;19139;49.372;8.580;2023-04-24T07:01:55;1.60;;;0.90;;
32786;SDS011;19139;49.372;8.580;2023-04-24T07:04:27;0.77;;;0.77;;
32786;SDS011;19139;49.372;8.580;2023-04-24T07:06:54;1.07;;;0.83;;
32786;SDS011;19139;49.372;8.580;2023-04-24T07:09:24;1.10;;;0.80;;
32786;SDS011;19139;49.372;8.580;2023-04-24T07:11:52;0.70;;;0.60;;
32786;SDS011;19139;49.372;8.580;2023-04-24T07:14:19;0.80;;;0.70;;
32786;SDS011;19139;49.372;8.580;2023-04-24T07:16:46;1.27;;;0.80;;
32786;SDS011;19139;49.372;8.580;2023-04-24T07:19:13;1.10;;;0.90;;
32786;SDS011;19139;49.372;8.580;2023-04-24T07:21:40;2.07;;;0.70;;
32786;SDS011;19139;49.372;8.580;2023-04-24T07:24:07;0.73;;;0.67;;
32786;SDS011;19139;49.372;8.580;2023-04-24T07:26:41;1.00;;;0.60;;
32786;SDS011;19139;49.372;8.580;2023-04-24T07:29:13;0.70;;;0.63;;
32786;SDS011;19139;49.372;8.580;2023-04-24T07:31:45;0.80;;;0.60;;
32786;SDS011;19139;49.372;8.580;2023-04-24T07:34:17;1.00;;;0.90;;
32786;SDS011;19139;49.372;8.580;2023-04-24T07:36:48;0.70;;;0.70;;
32786;SDS011;19139;49.372;8.580;2023-04-24T07:39:15;0.70;;;0.60;;
32786;SDS011;19139;49.372;8.580;2023-04-24T07:41:46;1.30;;;0.80;;
32786;SDS011;19139;49.372;8.580;2023-04-24T07:44:13;1.13;;;0.90;;
32786;SDS011;19139;49.372;8.580;2023-04-24T07:46:40;1.30;;;1.07;;
32786;SDS011;19139;49.372;8.580;2023-04-24T07:49:07;1.07;;;0.97;;
32786;SDS011;19139;49.372;8.580;2023-04-24T07:51:39;1.40;;;0.97;;
32786;SDS011;19139;49.372;8.580;2023-04-24T07:54:07;1.13;;;0.70;;
32786;SDS011;19139;49.372;8.580;2023-04-24T07:56:34;1.03;;;0.83;;
32786;SDS011;19139;49.372;8.580;2023-04-24T07:59:05;0.87;;;0.87;;
32786;SDS011;19139;49.372;8.580;2023-04-24T08:01:32;0.83;;;0.77;;
32786;SDS011;19139;49.372;8.580;2023-04-24T08:03:58;1.10;;;0.90;;
32786;SDS011;19139;49.372;8.580;2023-04-24T08:06:26;1.07;;;0.80;;
32786;SDS011;19139;49.372;8.580;2023-04-24T08:08:56;0.80;;;0.80;;
32786;SDS011;19139;49.372;8.580;2023-04-24T08:11:24;0.90;;;0.77;;
32786;SDS011;19139;49.372;8.580;2023-04-24T08:13:55;0.70;;;0.70;;
32786;SDS011;19139;49.372;8.580;2023-04-24T08:16:27;1.27;;;0.70;;
32786;SDS011;19139;49.372;8.580;2023-04-24T08:18:58;1.50;;;1.03;;
32786;SDS011;19139;49.372;8.580;2023-04-24T08:21:30;0.93;;;0.53;;
32786;SDS011;19139;49.372;8.580;2023-04-24T08:24:02;0.87;;;0.60;;
32786;SDS011;19139;49.372;8.580;2023-04-24T08:26:33;1.10;;;1.00;;
32786;SDS011;19139;49.372;8.580;2023-04-24T08:28:59;0.97;;;0.77;;
32786;SDS011;19139;49.372;8.580;2023-04-24T08:31:26;0.63;;;0.60;;
32786;SDS011;19139;49.372;8.580;2023-04-24T08:33:53;0.70;;;0.70;;
32786;SDS011;19139;49.372;8.580;2023-04-24T08:36:20;0.70;;;0.70;;
32786;SDS011;19139;49.372;8.580;2023-04-24T08:38:52;0.87;;;0.87;;
32786;SDS011;19139;49.372;8.580;2023-04-24T08:41:23;1.47;;;1.00;;
32786;SDS011;19139;49.372;8.580;2023-04-24T08:43:52;1.23;;;1.10;;
32786;SDS011;19139;49.372;8.580;2023-04-24T08:46:19;0.60;;;0.60;;
32786;SDS011;19139;49.372;8.580;2023-04-24T08:48:46;1.00;;;0.90;;
32786;SDS011;19139;49.372;8.580;2023-04-24T08:51:13;0.80;;;0.80;;
32786;SDS011;19139;49.372;8.580;2023-04-24T08:53:41;0.87;;;0.70;;
32786;SDS011;19139;49.372;8.580;2023-04-24T08:56:08;0.70;;;0.70;;
32786;SDS011;19139;49.372;8.580;2023-04-24T08:58:37;1.73;;;0.80;;
32786;SDS011;19139;49.372;8.580;2023-04-24T09:01:05;1.03;;;0.80;;
32786;SDS011;19139;49.372;8.580;2023-04-24T09:03:31;0.70;;;0.60;;
32786;SDS011;19139;49.372;8.580;2023-04-24T09:06:05;1.13;;;0.83;;
32786;SDS011;19139;49.372;8.580;2023-04-24T09:08:38;0.70;;;0.67;;
32786;SDS011;19139;49.372;8.580;2023-04-24T09:11:11;1.10;;;0.60;;
32786;SDS011;19139;49.372;8.580;2023-04-24T09:13:38;1.03;;;0.97;;
32786;SDS011;19139;49.372;8.580;2023-04-24T09:16:05;0.70;;;0.67;;
32786;SDS011;19139;49.372;8.580;2023-04-24T09:18:32;0.57;;;0.57;;
32786;SDS011;19139;49.372;8.580;2023-04-24T09:21:00;1.70;;;0.80;;
32786;SDS011;19139;49.372;8.580;2023-04-24T09:23:29;0.93;;;0.73;;
32786;SDS011;19139;49.372;8.580;2023-04-24T09:25:57;0.93;;;0.90;;
32786;SDS011;19139;49.372;8.580;2023-04-24T09:28:30;0.80;;;0.80;;
32786;SDS011;19139;49.372;8.580;2023-04-24T09:31:01;0.70;;;0.70;;
32786;SDS011;19139;49.372;8.580;2023-04-24T09:33:40;1.00;;;0.90;;
32786;SDS011;19139;49.372;8.580;2023-04-24T09:36:18;0.83;;;0.70;;
32786;SDS011;19139;49.372;8.580;2023-04-24T09:38:45;0.83;;;0.70;;
32786;SDS011;19139;49.372;8.580;2023-04-24T09:41:13;1.50;;;0.83;;
32786;SDS011;19139;49.372;8.580;2023-04-24T09:43:40;0.60;;;0.60;;
32786;SDS011;19139;49.372;8.580;2023-04-24T09:46:07;0.90;;;0.60;;
32786;SDS011;19139;49.372;8.580;2023-04-24T09:48:40;0.80;;;0.60;;
32786;SDS011;19139;49.372;8.580;2023-04-24T09:51:07;0.70;;;0.60;;
32786;SDS011;19139;49.372;8.580;2023-04-24T09:53:45;1.50;;;0.97;;
32786;SDS011;19139;49.372;8.580;2023-04-24T09:56:17;0.60;;;0.60;;
32786;SDS011;19139;49.372;8.580;2023-04-24T09:58:49;0.67;;;0.60;;
32786;SDS011;19139;49.372;8.580;2023-04-24T10:01:30;1.00;;;0.80;;
32786;SDS011;19139;49.372;8.580;2023-04-24T10:03:58;0.80;;;0.80;;
32786;SDS011;19139;49.372;8.580;2023-04-24T10:06:34;1.13;;;0.70;;
32786;SDS011;19139;49.372;8.580;2023-04-24T10:09:02;1.63;;;0.70;;
32786;SDS011;19139;49.372;8.580;2023-04-24T10:11:29;0.50;;;0.47;;
32786;SDS011;19139;49.372;8.580;2023-04-24T10:13:56;1.03;;;0.93;;
32786;SDS011;19139;49.372;8.580;2023-04-24T10:16:24;0.93;;;0.70;;
32786;SDS011;19139;49.372;8.580;2023-04-24T10:18:53;0.80;;;0.70;;
32786;SDS011;19139;49.372;8.580;2023-04-24T10:21:26;1.50;;;1.00;;
32786;SDS011;19139;49.372;8.580;2023-04-24T10:23:57;0.80;;;0.80;;
32786;SDS011;19139;49.372;8.580;2023-04-24T10:26:30;0.67;;;0.57;;
32786;SDS011;19139;49.372;8.580;2023-04-24T10:29:03;0.67;;;0.67;;
32786;SDS011;19139;49.372;8.580;2023-04-24T10:31:32;0.70;;;0.60;;
32786;SDS011;19139;49.372;8.580;2023-04-24T10:33:59;0.50;;;0.40;;
32786;SDS011;19139;49.372;8.580;2023-04-24T10:36:27;0.87;;;0.73;;
32786;SDS011;19139;49.372;8.580;2023-04-24T10:38:55;0.63;;;0.57;;
32786;SDS011;19139;49.372;8.580;2023-04-24T10:41:25;1.03;;;0.50;;
32786;SDS011;19139;49.372;8.580;2023-04-24T10:46:36;1.23;;;0.73;;
32786;SDS011;19139;49.372;8.580;2023-04-24T10:49:04;0.83;;;0.60;;
32786;SDS011;19139;49.372;8.580;2023-04-24T10:51:51;1.20;;;0.50;;
32786;SDS011;19139;49.372;8.580;2023-04-24T10:54:27;1.20;;;0.50;;
32786;SDS011;19139;49.372;8.580;2023-04-24T11:00:33;0.70;;;0.70;;
32786;SDS011;19139;49.372;8.580;2023-04-24T11:02:40;0.80;;;0.60;;
32786;SDS011;19139;49.372;8.580;2023-04-24T11:05:20;0.80;;;0.70;;
32786;SDS011;19139;49.372;8.580;2023-04-24T11:08:11;0.70;;;0.60;;
32786;SDS011;19139;49.372;8.580;2023-04-24T11:10:45;0.73;;;0.70;;
32786;SDS011;19139;49.372;8.580;2023-04-24T11:13:16;0.93;;;0.90;;
32786;SDS011;19139;49.372;8.580;2023-04-24T11:16:12;1.17;;;0.57;;
32786;SDS011;19139;49.372;8.580;2023-04-24T11:18:49;0.93;;;0.80;;
32786;SDS011;19139;49.372;8.580;2023-04-24T11:21:20;1.53;;;0.70;;
32786;SDS011;19139;49.372;8.580;2023-04-24T11:23:53;0.70;;;0.70;;
32786;SDS011;19139;49.372;8.580;2023-04-24T11:26:25;0.70;;;0.70;;
32786;SDS011;19139;49.372;8.580;2023-04-24T11:29:07;1.13;;;0.83;;
32786;SDS011;19139;49.372;8.580;2023-04-24T11:31:34;0.60;;;0.60;;
32786;SDS011;19139;49.372;8.580;2023-04-24T11:34:08;0.90;;;0.73;;
32786;SDS011;19139;49.372;8.580;2023-04-24T11:36:36;0.80;;;0.60;;
32786;SDS011;19139;49.372;8.580;2023-04-24T11:39:04;0.70;;;0.70;;
32786;SDS011;19139;49.372;8.580;2023-04-24T11:41:31;0.83;;;0.63;;
32786;SDS011;19139;49.372;8.580;2023-04-24T11:43:59;0.90;;;0.53;;
32786;SDS011;19139;49.372;8.580;2023-04-24T11:46:27;0.70;;;0.70;;
32786;SDS011;19139;49.372;8.580;2023-04-24T11:48:56;1.23;;;0.90;;
32786;SDS011;19139;49.372;8.580;2023-04-24T11:51:23;0.70;;;0.40;;
32786;SDS011;19139;49.372;8.580;2023-04-24T11:54:01;0.90;;;0.80;;
32786;SDS011;19139;49.372;8.580;2023-04-24T11:56:33;0.53;;;0.50;;
32786;SDS011;19139;49.372;8.580;2023-04-24T11:59:00;1.47;;;0.90;;
32786;SDS011;19139;49.372;8.580;2023-04-24T12:01:44;1.37;;;0.90;;
32786;SDS011;19139;49.372;8.580;2023-04-24T12:04:17;0.60;;;0.50;;
32786;SDS011;19139;49.372;8.580;2023-04-24T12:06:59;0.73;;;0.70;;
32786;SDS011;19139;49.372;8.580;2023-04-24T12:09:27;0.87;;;0.87;;
32786;SDS011;19139;49.372;8.580;2023-04-24T12:11:55;0.80;;;0.80;;
32786;SDS011;19139;49.372;8.580;2023-04-24T12:14:23;1.00;;;0.87;;
32786;SDS011;19139;49.372;8.580;2023-04-24T12:16:50;0.67;;;0.67;;
32786;SDS011;19139;49.372;8.580;2023-04-24T12:19:20;0.80;;;0.77;;
32786;SDS011;19139;49.372;8.580;2023-04-24T12:22:01;1.07;;;0.70;;
32786;SDS011;19139;49.372;8.580;2023-04-24T12:24:54;0.80;;;0.80;;
32786;SDS011;19139;49.372;8.580;2023-04-24T12:27:22;0.90;;;0.77;;
32786;SDS011;19139;49.372;8.580;2023-04-24T12:29:56;0.67;;;0.67;;
32786;SDS011;19139;49.372;8.580;2023-04-24T12:32:23;0.53;;;0.53;;
32786;SDS011;19139;49.372;8.580;2023-04-24T12:34:53;0.70;;;0.63;;
32786;SDS011;19139;49.372;8.580;2023-04-24T12:37:24;0.80;;;0.80;;
32786;SDS011;19139;49.372;8.580;2023-04-24T12:39:58;0.70;;;0.70;;
32786;SDS011;19139;49.372;8.580;2023-04-24T12:42:26;1.43;;;0.80;;
32786;SDS011;19139;49.372;8.580;2023-04-24T12:44:58;0.70;;;0.70;;
32786;SDS011;19139;49.372;8.580;2023-04-24T12:47:30;0.93;;;0.80;;
32786;SDS011;19139;49.372;8.580;2023-04-24T12:49:58;1.37;;;0.80;;
32786;SDS011;19139;49.372;8.580;2023-04-24T12:52:30;2.00;;;1.07;;
32786;SDS011;19139;49.372;8.580;2023-04-24T12:54:57;0.80;;;0.80;;
32786;SDS011;19139;49.372;8.580;2023-04-24T12:57:26;1.30;;;0.97;;
32786;SDS011;19139;49.372;8.580;2023-04-24T12:59:55;0.97;;;0.80;;
32786;SDS011;19139;49.372;8.580;2023-04-24T13:02:22;0.80;;;0.80;;
32786;SDS011;19139;49.372;8.580;2023-04-24T13:04:50;0.80;;;0.80;;
32786;SDS011;19139;49.372;8.580;2023-04-24T13:07:17;1.00;;;0.90;;
32786;SDS011;19139;49.372;8.580;2023-04-24T13:09:44;1.03;;;0.93;;
32786;SDS011;19139;49.372;8.580;2023-04-24T13:12:11;0.70;;;0.67;;
32786;SDS011;19139;49.372;8.580;2023-04-24T13:14:38;0.77;;;0.77;;
32786;SDS011;19139;49.372;8.580;2023-04-24T13:17:05;1.00;;;0.80;;
32786;SDS011;19139;49.372;8.580;2023-04-24T13:19:37;0.70;;;0.70;;
32786;SDS011;19139;49.372;8.580;2023-04-24T13:22:05;0.83;;;0.83;;
32786;SDS011;19139;49.372;8.580;2023-04-24T13:24:32;0.87;;;0.67;;
32786;SDS011;19139;49.372;8.580;2023-04-24T13:26:59;0.73;;;0.73;;
32786;SDS011;19139;49.372;8.580;2023-04-24T13:29:27;1.07;;;0.80;;
32786;SDS011;19139;49.372;8.580;2023-04-24T13:31:54;0.77;;;0.57;;
32786;SDS011;19139;49.372;8.580;2023-04-24T13:34:26;0.90;;;0.80;;
32786;SDS011;19139;49.372;8.580;2023-04-24T13:36:54;0.97;;;0.83;;
32786;SDS011;19139;49.372;8.580;2023-04-24T13:39:27;0.77;;;0.73;;
32786;SDS011;19139;49.372;8.580;2023-04-24T13:41:58;0.67;;;0.63;;
32786;SDS011;19139;49.372;8.580;2023-04-24T13:44:28;1.00;;;0.90;;
32786;SDS011;19139;49.372;8.580;2023-04-24T13:46:59;0.97;;;0.87;;
32786;SDS011;19139;49.372;8.580;2023-04-24T13:49:26;1.10;;;1.00;;
32786;SDS011;19139;49.372;8.580;2023-04-24T13:51:54;0.73;;;0.70;;
32786;SDS011;19139;49.372;8.580;2023-04-24T13:54:21;1.00;;;0.90;;
32786;SDS011;19139;49.372;8.580;2023-04-24T13:56:49;1.50;;;0.70;;
32786;SDS011;19139;49.372;8.580;2023-04-24T13:59:16;0.80;;;0.80;;
32786;SDS011;19139;49.372;8.580;2023-04-24T14:01:43;1.43;;;0.97;;
32786;SDS011;19139;49.372;8.580;2023-04-24T14:04:11;0.77;;;0.77;;
32786;SDS011;19139;49.372;8.580;2023-04-24T14:06:38;0.80;;;0.60;;
32786;SDS011;19139;49.372;8.580;2023-04-24T14:09:05;0.90;;;0.90;;
32786;SDS011;19139;49.372;8.580;2023-04-24T14:11:33;0.77;;;0.67;;
32786;SDS011;19139;49.372;8.580;2023-04-24T14:14:00;1.80;;;0.90;;
32786;SDS011;19139;49.372;8.580;2023-04-24T14:16:27;1.43;;;1.00;;
32786;SDS011;19139;49.372;8.580;2023-04-24T14:18:54;1.00;;;0.70;;
32786;SDS011;19139;49.372;8.580;2023-04-24T14:21:22;1.13;;;0.90;;
32786;SDS011;19139;49.372;8.580;2023-04-24T14:23:48;1.10;;;0.90;;
32786;SDS011;19139;49.372;8.580;2023-04-24T14:26:15;1.27;;;1.00;;
32786;SDS011;19139;49.372;8.580;2023-04-24T14:28:42;0.67;;;0.67;;
32786;SDS011;19139;49.372;8.580;2023-04-24T14:31:09;0.97;;;0.87;;
32786;SDS011;19139;49.372;8.580;2023-04-24T14:33:35;1.07;;;0.90;;
32786;SDS011;19139;49.372;8.580;2023-04-24T14:36:02;1.10;;;0.90;;
32786;SDS011;19139;49.372;8.580;2023-04-24T14:38:30;1.00;;;0.70;;
32786;SDS011;19139;49.372;8.580;2023-04-24T14:40:57;0.97;;;0.57;;
32786;SDS011;19139;49.372;8.580;2023-04-24T14:43:33;0.93;;;0.83;;
32786;SDS011;19139;49.372;8.580;2023-04-24T14:46:01;0.80;;;0.80;;
32786;SDS011;19139;49.372;8.580;2023-04-24T14:48:28;0.90;;;0.90;;
32786;SDS011;19139;49.372;8.580;2023-04-24T14:50:59;0.93;;;0.83;;
32786;SDS011;19139;49.372;8.580;2023-04-24T14:53:26;0.70;;;0.67;;
32786;SDS011;19139;49.372;8.580;2023-04-24T14:55:58;0.90;;;0.80;;
32786;SDS011;19139;49.372;8.580;2023-04-24T14:58:24;0.73;;;0.70;;
32786;SDS011;19139;49.372;8.580;2023-04-24T15:00:51;1.53;;;0.80;;
32786;SDS011;19139;49.372;8.580;2023-04-24T15:03:20;1.50;;;0.80;;
32786;SDS011;19139;49.372;8.580;2023-04-24T15:05:48;1.00;;;1.00;;